createdAt,value
2019-04-29T00:01:57.001Z,98654.91
2019-04-29T00:06:02.710Z,98651.67
2019-04-29T00:10:10.871Z,98648.02
2019-04-29T00:14:16.800Z,98649.80
2019-04-29T00:18:24.121Z,98654.39
2019-04-29T00:22:29.788Z,98651.18
2019-04-29T00:26:35.551Z,98647.38
2019-04-29T00:30:41.447Z,98654.87
2019-04-29T00:34:47.273Z,98657.42
2019-04-29T00:39:12.577Z,98657.91
2019-04-29T00:43:30.007Z,98656.11
2019-04-29T00:47:35.772Z,98662.63
2019-04-29T00:51:41.521Z,98660.63
2019-04-29T00:55:48.894Z,98669.77
2019-04-29T00:59:54.574Z,98670.05
2019-04-29T01:04:00.321Z,98666.50
2019-04-29T01:08:06.248Z,98663.16
2019-04-29T01:12:11.956Z,98663.62
2019-04-29T01:16:17.725Z,98661.95
2019-04-29T01:20:24.450Z,98668.06
2019-04-29T01:24:30.130Z,98662.25
2019-04-29T01:28:37.440Z,98668.23
2019-04-29T01:32:43.134Z,98668.62
2019-04-29T01:36:48.825Z,98671.06
2019-04-29T01:40:56.140Z,98668.63
2019-04-29T01:45:01.889Z,98675.66
2019-04-29T01:49:07.738Z,98672.11
2019-04-29T01:53:13.413Z,98678.41
2019-04-29T01:57:19.127Z,98677.56
2019-04-29T02:01:25.044Z,98673.88
2019-04-29T02:05:30.744Z,98671.45
2019-04-29T02:09:38.051Z,98673.91
2019-04-29T02:13:44.707Z,98668.35
2019-04-29T02:17:50.388Z,98672.39
2019-04-29T02:22:09.772Z,98673.19
2019-04-29T02:26:15.460Z,98672.56
2019-04-29T02:30:41.182Z,98674.11
2019-04-29T02:34:46.867Z,98673.13
2019-04-29T02:39:10.260Z,98674.69
2019-04-29T02:43:17.721Z,98672.46
2019-04-29T02:47:23.415Z,98671.54
2019-04-29T02:51:48.333Z,98671.09
2019-04-29T02:55:55.654Z,98674.13
2019-04-29T03:00:03.213Z,98673.19
2019-04-29T03:04:17.919Z,98676.34
2019-04-29T03:08:24.058Z,98670.09
2019-04-29T03:12:29.839Z,98668.17
2019-04-29T03:16:35.726Z,98666.05
2019-04-29T03:20:49.027Z,98659.62
2019-04-29T03:24:55.757Z,98665.55
2019-04-29T03:29:03.205Z,98663.08
2019-04-29T03:33:08.884Z,98670.58
2019-04-29T03:37:14.618Z,98658.91
2019-04-29T03:41:20.311Z,98659.70
2019-04-29T03:45:25.984Z,98668.12
2019-04-29T03:49:31.745Z,98666.36
2019-04-29T03:53:37.407Z,98668.54
2019-04-29T03:57:43.090Z,98665.17
2019-04-29T04:02:08.446Z,98666.84
2019-04-29T04:06:15.771Z,98674.35
2019-04-29T04:10:21.529Z,98669.65
2019-04-29T04:14:28.180Z,98671.30
2019-04-29T04:18:35.483Z,98671.33
2019-04-29T04:22:48.214Z,98668.05
2019-04-29T04:26:53.929Z,98666.05
2019-04-29T04:30:59.604Z,98671.84
2019-04-29T04:35:06.994Z,98673.63
2019-04-29T04:39:12.723Z,98677.61
2019-04-29T04:43:18.408Z,98676.82
2019-04-29T04:47:24.090Z,98683.61
2019-04-29T04:51:29.839Z,98687.23
2019-04-29T04:55:38.360Z,98685.38
2019-04-29T04:59:44.025Z,98694.70
2019-04-29T05:03:50.685Z,98704.73
2019-04-29T05:07:56.382Z,98696.73
2019-04-29T05:12:02.091Z,98704.46
2019-04-29T05:16:07.782Z,98704.78
2019-04-29T05:20:13.693Z,98711.22
2019-04-29T05:24:19.387Z,98710.73
2019-04-29T05:28:25.186Z,98704.31
2019-04-29T05:32:30.879Z,98707.07
2019-04-29T05:36:39.345Z,98716.36
2019-04-29T05:40:46.692Z,98718.02
2019-04-29T05:44:56.922Z,98721.63
2019-04-29T05:49:07.156Z,98723.02
2019-04-29T05:53:16.409Z,98733.21
2019-04-29T05:57:25.221Z,98736.23
2019-04-29T06:01:31.502Z,98737.50
2019-04-29T06:05:37.203Z,98748.41
2019-04-29T06:09:42.892Z,98740.09
2019-04-29T06:13:48.588Z,98731.27
2019-04-29T06:17:54.428Z,98732.11
2019-04-29T06:22:00.130Z,98734.12
2019-04-29T06:26:05.821Z,98734.94
2019-04-29T06:30:11.836Z,98737.61
2019-04-29T06:34:18.491Z,98747.10
2019-04-29T06:38:24.181Z,98749.02
2019-04-29T06:42:29.864Z,98750.83
2019-04-29T06:46:35.563Z,98755.48
2019-04-29T06:50:41.322Z,98761.63
2019-04-29T06:54:47.077Z,98765.27
2019-04-29T06:58:52.835Z,98758.73
2019-04-29T07:02:58.519Z,98758.20
2019-04-29T07:07:04.349Z,98758.73
2019-04-29T07:11:10.061Z,98760.75
2019-04-29T07:15:15.942Z,98761.66
2019-04-29T07:19:22.162Z,98764.25
2019-04-29T07:23:29.058Z,98766.56
2019-04-29T07:27:42.792Z,98760.06
2019-04-29T07:31:42.241Z,98762.34
2019-04-29T07:35:49.593Z,98764.02
2019-04-29T07:39:55.396Z,98762.41
2019-04-29T07:44:01.095Z,98757.56
2019-04-29T07:48:07.736Z,98750.56
2019-04-29T07:52:14.540Z,98751.17
2019-04-29T07:56:20.967Z,98754.92
2019-04-29T08:00:34.955Z,98740.58
2019-04-29T08:04:40.646Z,98741.44
2019-04-29T08:08:54.735Z,98742.81
2019-04-29T08:12:55.963Z,98747.32
2019-04-29T08:17:01.660Z,98745.16
2019-04-29T08:21:10.300Z,98746.09
2019-04-29T08:25:14.878Z,98753.05
2019-04-29T08:29:20.564Z,98751.56
2019-04-29T08:33:26.256Z,98751.37
2019-04-29T08:37:31.941Z,98754.80
2019-04-29T08:41:37.775Z,98756.57
2019-04-29T08:45:47.781Z,98755.77
2019-04-29T08:49:53.487Z,98757.63
2019-04-29T08:53:59.152Z,98760.00
2019-04-29T08:58:07.015Z,98757.20
2019-04-29T09:02:12.424Z,98759.64
2019-04-29T09:06:18.106Z,98765.20
2019-04-29T09:10:23.888Z,98766.35
2019-04-29T09:14:29.573Z,98770.55
2019-04-29T09:18:35.264Z,98766.06
2019-04-29T09:22:45.497Z,98766.95
2019-04-29T09:26:53.793Z,98763.16
2019-04-29T09:30:59.475Z,98757.53
2019-04-29T09:35:05.846Z,98759.86
2019-04-29T09:39:11.589Z,98752.08
2019-04-29T09:43:25.622Z,98751.93
2019-04-29T09:47:29.525Z,98745.34
2019-04-29T09:51:36.277Z,98747.62
2019-04-29T09:55:41.976Z,98742.05
2019-04-29T09:59:51.792Z,98739.20
2019-04-29T10:04:01.770Z,98741.69
2019-04-29T10:08:07.738Z,98735.25
2019-04-29T10:12:13.967Z,98724.08
2019-04-29T10:16:31.691Z,98718.55
2019-04-29T10:20:37.297Z,98717.95
2019-04-29T10:24:43.061Z,98715.61
2019-04-29T10:28:53.057Z,98722.62
2019-04-29T10:32:58.836Z,98712.88
2019-04-29T10:37:04.766Z,98699.58
2019-04-29T10:41:19.441Z,98692.98
2019-04-29T10:45:26.839Z,98695.13
2019-04-29T10:49:34.853Z,98691.31
2019-04-29T10:53:41.736Z,98689.48
2019-04-29T10:57:49.629Z,98686.73
2019-04-29T11:02:22.993Z,98675.23
2019-04-29T11:06:31.334Z,98680.11
2019-04-29T11:10:36.561Z,98672.41
2019-04-29T11:14:42.393Z,98670.44
2019-04-29T11:18:48.184Z,98675.13
2019-04-29T11:22:59.441Z,98660.23
2019-04-29T11:27:18.906Z,98648.75
2019-04-29T11:31:24.803Z,98652.59
2019-04-29T11:35:32.266Z,98646.13
2019-04-29T11:39:38.119Z,98636.91
2019-04-29T11:43:46.721Z,98634.88
2019-04-29T11:47:51.611Z,98639.77
2019-04-29T11:52:09.070Z,98638.30
2019-04-29T11:56:04.997Z,98630.06
2019-04-29T12:00:30.783Z,98617.80
2019-04-29T12:04:43.773Z,98620.36
2019-04-29T12:08:53.375Z,98607.59
2019-04-29T12:12:58.731Z,98614.29
2019-04-29T12:17:21.279Z,98617.17
2019-04-29T12:21:28.601Z,98607.97
2019-04-29T12:25:36.465Z,98612.70
2019-04-29T12:29:41.668Z,98606.28
2019-04-29T12:33:49.008Z,98599.47
2019-04-29T12:37:56.337Z,98598.45
2019-04-29T12:42:20.522Z,98606.25
2019-04-29T12:46:26.036Z,98595.72
2019-04-29T12:50:33.132Z,98598.31
2019-04-29T12:54:42.114Z,98596.86
2019-04-29T12:58:50.478Z,98595.10
2019-04-29T13:02:59.830Z,98591.23
2019-04-29T13:07:09.800Z,98586.91
2019-04-29T13:11:19.033Z,98572.28
2019-04-29T13:15:33.319Z,98579.76
2019-04-29T13:19:40.304Z,98581.88
2019-04-29T13:23:59.144Z,98571.84
2019-04-29T13:27:56.096Z,98572.34
2019-04-29T13:32:01.730Z,98567.23
2019-04-29T13:36:09.298Z,98562.16
2019-04-29T13:40:15.641Z,98566.78
2019-04-29T13:44:21.388Z,98556.52
2019-04-29T13:48:28.692Z,98554.39
2019-04-29T13:52:34.396Z,98552.44
2019-04-29T13:56:55.497Z,98548.47
2019-04-29T14:00:47.247Z,98541.59
2019-04-29T14:04:56.002Z,98539.13
2019-04-29T14:09:03.955Z,98541.27
2019-04-29T14:13:16.298Z,98533.02
2019-04-29T14:17:26.475Z,98533.33
2019-04-29T14:21:30.056Z,98525.84
2019-04-29T14:25:33.212Z,98519.08
2019-04-29T14:29:38.881Z,98522.89
2019-04-29T14:33:48.654Z,98518.80
2019-04-29T14:37:55.848Z,98518.45
2019-04-29T14:42:03.354Z,98514.95
2019-04-29T14:46:26.562Z,98513.44
2019-04-29T14:50:32.407Z,98517.69
2019-04-29T14:54:41.844Z,98519.94
2019-04-29T14:58:45.631Z,98516.58
2019-04-29T15:02:51.375Z,98520.04
2019-04-29T15:06:57.117Z,98517.31
2019-04-29T15:11:04.235Z,98527.42
2019-04-29T15:15:16.859Z,98531.00
2019-04-29T15:19:39.809Z,98521.27
2019-04-29T15:23:47.210Z,98520.63
2019-04-29T15:27:52.898Z,98518.38
2019-04-29T15:31:58.608Z,98515.50
2019-04-29T15:36:04.277Z,98520.27
2019-04-29T15:40:10.543Z,98513.65
2019-04-29T15:44:20.116Z,98515.13
2019-04-29T15:48:23.584Z,98517.80
2019-04-29T15:52:29.376Z,98517.18
2019-04-29T15:56:38.548Z,98517.76
2019-04-29T16:00:42.488Z,98522.86
2019-04-29T16:04:55.610Z,98510.64
2019-04-29T16:09:03.088Z,98514.43
2019-04-29T16:13:14.902Z,98517.25
2019-04-29T16:17:20.897Z,98519.02
2019-04-29T16:21:32.174Z,98523.97
2019-04-29T16:25:40.361Z,98512.47
2019-04-29T16:29:46.229Z,98519.73
2019-04-29T16:33:54.591Z,98512.38
2019-04-29T16:37:56.432Z,98522.57
2019-04-29T16:42:07.053Z,98533.20
2019-04-29T16:46:14.470Z,98532.69
2019-04-29T16:50:20.189Z,98528.36
2019-04-29T16:54:28.441Z,98536.21
2019-04-29T16:58:33.730Z,98529.61
2019-04-29T17:08:09.231Z,98538.29
2019-04-29T17:12:16.516Z,98545.07
2019-04-29T17:16:23.894Z,98548.48
2019-04-29T17:20:29.802Z,98552.83
2019-04-29T17:24:35.495Z,98554.16
2019-04-29T17:28:42.834Z,98556.02
2019-04-29T17:32:50.854Z,98554.31
2019-04-29T17:36:56.804Z,98557.88
2019-04-29T17:41:02.560Z,98558.74
2019-04-29T17:45:12.337Z,98555.67
2019-04-29T17:49:18.167Z,98563.59
2019-04-29T17:53:25.582Z,98563.20
2019-04-29T17:57:34.070Z,98568.34
2019-04-29T18:01:46.824Z,98566.67
2019-04-29T18:06:05.472Z,98567.03
2019-04-29T18:10:29.654Z,98565.66
2019-04-29T18:14:39.098Z,98571.84
2019-04-29T18:18:46.616Z,98576.15
2019-04-29T18:23:11.196Z,98581.45
2019-04-29T18:27:25.333Z,98579.07
2019-04-29T18:31:31.890Z,98587.94
2019-04-29T18:35:38.548Z,98582.82
2019-04-29T18:39:44.235Z,98592.56
2019-04-29T18:43:49.989Z,98588.37
2019-04-29T18:47:55.687Z,98598.51
2019-04-29T18:52:02.278Z,98593.38
2019-04-29T18:56:08.973Z,98597.66
2019-04-29T19:00:19.926Z,98595.56
2019-04-29T19:04:25.920Z,98594.52
2019-04-29T19:08:31.953Z,98595.06
2019-04-29T19:12:39.370Z,98600.88
2019-04-29T19:16:45.874Z,98605.04
2019-04-29T19:20:52.736Z,98603.17
2019-04-29T19:24:59.150Z,98603.36
2019-04-29T19:29:06.242Z,98603.66
2019-04-29T19:33:12.625Z,98605.83
2019-04-29T19:37:18.400Z,98605.59
2019-04-29T19:41:25.625Z,98604.30
2019-04-29T19:45:31.799Z,98604.36
2019-04-29T19:49:40.177Z,98609.25
2019-04-29T19:53:49.149Z,98600.02
2019-04-29T19:57:52.865Z,98594.54
2019-04-29T20:02:05.383Z,98606.19
2019-04-29T20:06:21.368Z,98597.05
2019-04-29T20:10:21.918Z,98591.80
2019-04-29T20:14:33.490Z,98586.09
2019-04-29T20:18:40.442Z,98586.25
2019-04-29T20:22:50.586Z,98585.64
2019-04-29T20:26:52.203Z,98574.59
2019-04-29T20:31:14.802Z,98572.53
2019-04-29T20:35:08.879Z,98570.78
2019-04-29T20:39:19.832Z,98567.50
2019-04-29T20:43:25.948Z,98564.54
2019-04-29T20:47:37.605Z,98564.13
2019-04-29T20:51:48.631Z,98557.77
2019-04-29T20:55:46.110Z,98547.66
2019-04-29T20:59:51.994Z,98549.44
2019-04-29T21:03:58.019Z,98544.34
2019-04-29T21:08:14.049Z,98540.98
2019-04-29T21:12:12.746Z,98547.53
2019-04-29T21:16:22.839Z,98526.94
2019-04-29T21:20:27.517Z,98521.55
2019-04-29T21:24:35.174Z,98521.55
2019-04-29T21:28:41.810Z,98532.52
2019-04-29T21:32:48.288Z,98532.39
2019-04-29T21:37:06.695Z,98526.95
2019-04-29T21:41:20.307Z,98526.05
2019-04-29T21:45:26.290Z,98509.23
2019-04-29T21:49:43.310Z,98497.48
2019-04-29T21:53:40.406Z,98502.40
2019-04-29T21:57:46.174Z,98504.70
2019-04-29T22:01:51.873Z,98505.53
2019-04-29T22:06:00.183Z,98499.13
2019-04-29T22:10:07.039Z,98498.24
2019-04-29T22:14:14.059Z,98496.33
2019-04-29T22:18:22.210Z,98496.11
2019-04-29T22:22:30.667Z,98496.41
2019-04-29T22:26:35.293Z,98489.24
2019-04-29T22:30:41.113Z,98491.21
2019-04-29T22:34:49.497Z,98494.23
2019-04-29T22:38:55.827Z,98488.54
2019-04-29T22:43:08.929Z,98493.92
2019-04-29T22:47:10.718Z,98492.50
2019-04-29T22:51:18.844Z,98498.48
2019-04-29T22:55:25.317Z,98502.67
2019-04-29T22:59:31.076Z,98501.48
2019-04-29T23:03:37.516Z,98494.73
2019-04-29T23:07:45.573Z,98493.06
2019-04-29T23:11:52.309Z,98491.17
2019-04-29T23:16:01.090Z,98479.80
2019-04-29T23:20:28.819Z,98479.80
2019-04-29T23:24:36.388Z,98468.60
2019-04-29T23:28:42.123Z,98474.65
2019-04-29T23:32:47.918Z,98476.45
2019-04-29T23:36:53.600Z,98469.52
2019-04-29T23:40:59.420Z,98468.92
2019-04-29T23:45:06.578Z,98457.59
2019-04-29T23:49:12.345Z,98463.94
2019-04-29T23:53:20.747Z,98462.50
2019-04-29T23:57:29.778Z,98459.17
